Terminal Aerodrome Forecast
Issued by NWS

Home | Current Version | Previous Version | Text Only | Print | Product List | Glossary On
Versions: 1 2 3 4 5 6 7 8 9 10 11 12 13 14 15 16 17 18 19 20 21 22 23 24 25 26 27 28 29 30 31 32 33 34 35 36 37 38 39 40 41 42 43 44 45 46
000
FTUS45 KBOU 201720
TAFAPA
TAF
KAPA 201720Z 2018/2118 02004KT P6SM FEW080 SCT200
     FM202000 04007KT P6SM SCT080 SCT200
     FM210200 10008KT P6SM SCT070 BKN120
     FM210800 13008KT P6SM VCSH BKN060 OVC100
     FM211500 18007KT P6SM SCT040 OVC060 PROB30 2115/2118 -SHRA
      BKN040=

USA.gov is the U.S. government's official web portal to all federal, state and local government web resources and services.